Airfield :
LOGIN :

Register | Disclaimer

   EN    FR    IT 

 










Legend :    VFR   Marginal VFR   IFR   Intensive IFR   Very Intensive IFR
Visi :
Ceiling :
>= 8 km
>= 3000ft
5 to 8 km
1000 to 3000 ft
1500m to 5 km
500 to 1000 ft
800 to 1500m
200 to 500 ft
< 800m
< 200 ft
Symbols :   Thunderstorms  Fog  Heavy snow  Heavy precipitations  Wind > 20 kt
SIGMETs :     Misc.  Thunderstorms  Icing  Turbulence  Mountain Waves  Volcanic Ashes







- Airport Elevation : 268 ft
- IATA code : BFS
- Download approach charts


EGAA - Belfast Aldergrove

CURRENT METAR :
  • 191120Z 25007KT 4100 BR BKN002 09/09 Q1018

EXPIRED METARs :
  • 191050Z 21006KT 4600 BR BKN002 09/09 Q1018
  • 191020Z 23005KT 6000 SCT003 BKN039 09/09 Q1018
  • 190950Z 23004KT 7000 SCT011 BKN041 09/09 Q1017
  • 190920Z 22003KT 6000 SCT010 BKN041 08/08 Q1017
  • 190850Z 23005KT 6000 BKN040 08/08 Q1017

TAF TAF EGAA
Valid from the 19 at 12:00 until the 20 at 12:00 UTC


191102Z 1912/2012 23008KT 9999 FEW015 SCT035
TEMPO 1912/1917 7000
PROB30
TEMPO 1912/1913 BKN002
TEMPO 1917/1920 5000 RA SCT004 BKN008
BECMG 1918/1921 30010KT
PROB30
TEMPO 2006/2009 3000 BR
No reported NOTAMs for that airfield.



MET'MAP, your aeronautical weather chart ! - Copyright ORBIFLY December 2007 - Disclaimer

ORBIFLY MET'MAP TEAM :

Programming & Development : Alexandra Zaïnal
Concept & Development : Baudouin d'Aumeries
Co-Development & Prog : Marc-Olivier Méhu
Technical & hardware support : Manuel Goepfert

Contact : metmap@orbifly.com




SOURCES & CREDITS :

   NOAA